createdAt,value
2023-02-20T00:02:18.809Z,4.63
2023-02-20T00:05:06.265Z,5.00
2023-02-20T00:07:52.944Z,5.20
2023-02-20T00:10:39.904Z,3.93
2023-02-20T00:13:26.364Z,4.53
2023-02-20T00:16:14.773Z,4.20
2023-02-20T00:19:01.487Z,4.47
2023-02-20T00:21:50.136Z,3.80
2023-02-20T00:24:36.775Z,4.70
2023-02-20T00:27:23.299Z,3.90
2023-02-20T00:30:12.640Z,4.00
2023-02-20T00:33:00.439Z,4.10
2023-02-20T00:35:47.061Z,3.70
2023-02-20T00:38:33.530Z,3.70
2023-02-20T00:41:21.930Z,3.63
2023-02-20T00:44:08.824Z,4.23
2023-02-20T00:46:55.668Z,4.30
2023-02-20T00:49:43.469Z,4.33
2023-02-20T00:52:30.047Z,3.97
2023-02-20T00:55:16.713Z,4.03
2023-02-20T00:58:03.006Z,4.00
2023-02-20T01:00:49.819Z,4.10
2023-02-20T01:03:36.247Z,4.00
2023-02-20T01:06:24.113Z,3.87
2023-02-20T01:09:10.775Z,3.50
2023-02-20T01:11:57.078Z,4.27
2023-02-20T01:14:43.351Z,4.13
2023-02-20T01:17:29.743Z,5.23
2023-02-20T01:20:16.076Z,4.37
2023-02-20T01:23:04.753Z,4.53
2023-02-20T01:25:51.330Z,4.70
2023-02-20T01:28:37.672Z,4.17
2023-02-20T01:31:24.150Z,4.63
2023-02-20T01:34:10.874Z,5.13
2023-02-20T01:36:57.471Z,5.63
2023-02-20T01:39:48.562Z,4.73
2023-02-20T01:42:35.954Z,5.00
2023-02-20T01:45:34.633Z,5.10
2023-02-20T01:48:24.199Z,4.70
2023-02-20T01:51:11.008Z,4.40
2023-02-20T01:53:57.199Z,5.17
2023-02-20T01:56:46.864Z,4.57
2023-02-20T01:59:38.356Z,4.73
2023-02-20T02:02:26.372Z,4.33
2023-02-20T02:05:13.649Z,4.93
2023-02-20T02:08:02.067Z,4.70
2023-02-20T02:10:56.286Z,5.20
2023-02-20T02:13:45.070Z,4.93
2023-02-20T02:16:38.301Z,4.67
2023-02-20T02:19:50.680Z,4.87
2023-02-20T02:23:06.026Z,4.90
2023-02-20T02:25:57.820Z,5.43
2023-02-20T02:29:16.976Z,4.63
2023-02-20T02:32:21.956Z,4.27
2023-02-20T02:35:29.587Z,5.03
2023-02-20T02:38:23.418Z,4.50
2023-02-20T02:41:19.581Z,4.70
2023-02-20T02:44:12.240Z,4.80
2023-02-20T02:47:03.660Z,4.70
2023-02-20T02:49:56.778Z,4.80
2023-02-20T02:52:48.664Z,5.17
2023-02-20T02:55:37.219Z,4.80
2023-02-20T02:58:24.162Z,5.30
2023-02-20T03:01:11.079Z,5.23
2023-02-20T03:03:58.222Z,4.90
2023-02-20T03:06:47.406Z,4.90
2023-02-20T03:09:37.888Z,5.90
2023-02-20T03:12:28.294Z,5.43
2023-02-20T03:15:33.278Z,5.77
2023-02-20T03:18:30.547Z,6.13
2023-02-20T03:21:19.416Z,5.73
2023-02-20T03:24:07.037Z,6.70
2023-02-20T03:26:56.158Z,6.30
2023-02-20T03:29:44.497Z,7.33
2023-02-20T03:32:51.176Z,7.00
2023-02-20T03:35:58.024Z,6.43
2023-02-20T03:39:07.910Z,8.10
2023-02-20T03:42:14.420Z,7.23
2023-02-20T03:45:04.709Z,8.30
2023-02-20T03:47:54.391Z,7.00
2023-02-20T03:50:41.337Z,7.70
2023-02-20T03:53:28.814Z,7.63
2023-02-20T03:56:19.867Z,8.50
2023-02-20T03:59:13.724Z,8.20
2023-02-20T04:02:05.826Z,8.53
2023-02-20T04:04:56.634Z,8.43
2023-02-20T04:07:49.231Z,7.83
2023-02-20T04:10:41.624Z,8.47
2023-02-20T04:13:28.099Z,9.00
2023-02-20T04:16:15.414Z,8.67
2023-02-20T04:19:04.666Z,8.70
2023-02-20T04:21:54.011Z,9.30
2023-02-20T04:24:45.561Z,8.77
2023-02-20T04:27:33.422Z,9.27
2023-02-20T04:30:20.000Z,8.87
2023-02-20T04:33:06.707Z,8.50
2023-02-20T04:35:54.739Z,8.90
2023-02-20T04:38:41.534Z,8.83
2023-02-20T04:41:27.873Z,8.67
2023-02-20T04:44:32.251Z,7.87
2023-02-20T04:47:19.432Z,9.20
2023-02-20T04:50:06.808Z,8.60
2023-02-20T04:52:55.201Z,8.57
2023-02-20T04:55:42.029Z,8.97
2023-02-20T04:58:28.748Z,8.13
2023-02-20T05:01:15.239Z,7.37
2023-02-20T05:04:01.684Z,7.03
2023-02-20T05:06:50.708Z,7.37
2023-02-20T05:09:38.423Z,7.17
2023-02-20T05:12:24.990Z,7.00
2023-02-20T05:15:11.406Z,6.03
2023-02-20T05:17:58.219Z,5.97
2023-02-20T05:21:01.964Z,4.83
2023-02-20T05:23:48.568Z,5.80
2023-02-20T05:26:36.398Z,5.83
2023-02-20T05:29:23.732Z,6.47
2023-02-20T05:32:10.227Z,5.93
2023-02-20T05:34:56.747Z,5.30
2023-02-20T05:37:43.503Z,6.53
2023-02-20T05:40:29.986Z,5.17
2023-02-20T05:43:19.329Z,6.13
2023-02-20T05:46:06.267Z,6.40
2023-02-20T05:48:53.545Z,6.17
2023-02-20T05:51:40.270Z,5.93
2023-02-20T05:54:26.770Z,5.37
2023-02-20T05:57:13.687Z,5.50
2023-02-20T06:00:01.693Z,5.87
2023-02-20T06:02:48.211Z,5.10
2023-02-20T06:05:34.607Z,4.87
2023-02-20T06:08:21.292Z,4.60
2023-02-20T06:11:08.620Z,6.07
2023-02-20T06:13:55.117Z,8.07
2023-02-20T06:16:42.780Z,5.10
2023-02-20T06:19:29.590Z,7.40
2023-02-20T06:22:17.765Z,5.13
2023-02-20T06:25:04.639Z,5.73
2023-02-20T06:27:50.947Z,6.40
2023-02-20T06:30:37.467Z,4.87
2023-02-20T06:33:25.312Z,4.50
2023-02-20T06:36:21.221Z,4.87
2023-02-20T06:39:09.091Z,4.17
2023-02-20T06:41:55.966Z,4.03
2023-02-20T06:44:43.091Z,3.70
2023-02-20T06:47:29.682Z,4.50
2023-02-20T06:50:17.841Z,4.33
2023-02-20T06:53:04.871Z,5.43
2023-02-20T06:55:51.548Z,5.27
2023-02-20T06:58:37.970Z,5.73
2023-02-20T07:01:30.669Z,5.67
2023-02-20T07:04:19.849Z,6.00
2023-02-20T07:07:08.110Z,5.93
2023-02-20T07:09:54.691Z,6.33
2023-02-20T07:12:41.333Z,6.63
2023-02-20T07:15:28.313Z,6.70
2023-02-20T07:18:14.728Z,6.90
2023-02-20T07:21:01.439Z,7.10
2023-02-20T07:23:53.461Z,7.77
2023-02-20T07:26:40.332Z,8.27
2023-02-20T07:29:26.997Z,7.93
2023-02-20T07:32:13.704Z,8.47
2023-02-20T07:35:05.082Z,7.67
2023-02-20T07:37:53.352Z,8.20
2023-02-20T07:40:41.142Z,8.70
2023-02-20T07:43:27.495Z,8.33
2023-02-20T07:46:14.171Z,7.97
2023-02-20T07:49:01.710Z,8.67
2023-02-20T07:51:48.091Z,8.33
2023-02-20T07:54:34.588Z,8.33
2023-02-20T07:57:22.607Z,8.83
2023-02-20T08:00:11.229Z,8.53
2023-02-20T08:02:59.387Z,8.43
2023-02-20T08:05:49.590Z,7.77
2023-02-20T08:08:36.522Z,9.83
2023-02-20T08:11:24.113Z,8.20
2023-02-20T08:14:14.199Z,8.50
2023-02-20T08:17:00.694Z,8.73
2023-02-20T08:19:47.123Z,8.37
2023-02-20T08:22:41.408Z,7.93
2023-02-20T08:25:28.120Z,7.93
2023-02-20T08:28:15.495Z,8.33
2023-02-20T08:31:03.297Z,7.50
2023-02-20T08:33:49.967Z,8.20
2023-02-20T08:36:36.812Z,7.77
2023-02-20T08:39:23.082Z,7.10
2023-02-20T08:42:09.552Z,7.03
2023-02-20T08:44:55.982Z,6.83
2023-02-20T08:47:43.623Z,6.57
2023-02-20T08:50:30.276Z,6.30
2023-02-20T08:53:17.544Z,6.83
2023-02-20T08:56:05.064Z,6.67
2023-02-20T08:58:51.429Z,6.30
2023-02-20T09:01:38.174Z,6.30
2023-02-20T09:04:26.281Z,7.97
2023-02-20T09:07:13.700Z,6.10
2023-02-20T09:10:00.114Z,6.33
2023-02-20T09:12:46.951Z,6.03
2023-02-20T09:15:38.637Z,6.23
2023-02-20T09:18:25.475Z,5.90
2023-02-20T09:21:14.820Z,5.93
2023-02-20T09:24:01.191Z,6.00
2023-02-20T09:26:47.464Z,5.40
2023-02-20T09:29:34.192Z,5.60
2023-02-20T09:32:20.958Z,5.27
2023-02-20T09:35:08.038Z,5.80
2023-02-20T09:37:56.289Z,5.77
2023-02-20T09:40:44.510Z,4.50
2023-02-20T09:43:48.934Z,5.07
2023-02-20T09:46:35.812Z,4.80
2023-02-20T09:49:26.822Z,4.30
2023-02-20T09:52:16.862Z,4.83
2023-02-20T09:55:09.869Z,4.80
2023-02-20T09:57:58.319Z,4.40
2023-02-20T10:00:44.893Z,4.30
2023-02-20T10:03:40.191Z,4.83
2023-02-20T10:06:29.869Z,4.43
2023-02-20T10:09:17.982Z,3.80
2023-02-20T10:12:18.026Z,5.03
2023-02-20T10:15:20.872Z,5.00
2023-02-20T10:18:18.987Z,4.57
2023-02-20T10:21:13.250Z,5.73
2023-02-20T10:24:06.955Z,4.80
2023-02-20T10:26:59.424Z,5.27
2023-02-20T10:29:48.124Z,4.37
2023-02-20T10:32:41.436Z,4.60
2023-02-20T10:35:35.209Z,5.07
2023-02-20T10:38:25.880Z,7.13
2023-02-20T10:41:21.441Z,4.83
2023-02-20T10:44:17.888Z,4.10
2023-02-20T10:47:11.627Z,3.80
2023-02-20T10:50:04.205Z,3.67
2023-02-20T10:52:56.664Z,3.77
2023-02-20T10:55:49.773Z,4.53
2023-02-20T10:58:41.853Z,3.23
2023-02-20T11:01:29.190Z,3.90
2023-02-20T11:04:21.899Z,3.63
2023-02-20T11:07:11.134Z,3.40
2023-02-20T11:09:57.559Z,4.53
2023-02-20T11:12:49.321Z,3.27
2023-02-20T11:15:37.085Z,3.20
2023-02-20T11:18:28.216Z,3.67
2023-02-20T11:21:35.412Z,3.73
2023-02-20T11:24:34.302Z,3.63
2023-02-20T11:27:23.265Z,3.53
2023-02-20T11:30:29.359Z,3.63
2023-02-20T11:33:19.188Z,3.70
2023-02-20T11:36:14.415Z,3.10
2023-02-20T11:39:06.695Z,3.17
2023-02-20T11:42:07.556Z,5.00
2023-02-20T11:45:15.142Z,3.60
2023-02-20T11:48:10.503Z,3.30
2023-02-20T11:50:56.909Z,3.83
2023-02-20T11:53:44.305Z,3.73
2023-02-20T11:56:32.334Z,4.07
2023-02-20T11:59:38.093Z,3.80
2023-02-20T12:02:29.315Z,4.00
2023-02-20T12:05:17.424Z,3.37
2023-02-20T12:08:03.672Z,3.67
2023-02-20T12:10:54.648Z,4.97
2023-02-20T12:13:44.023Z,4.80
2023-02-20T12:16:59.802Z,3.50
2023-02-20T12:19:58.748Z,3.60
2023-02-20T12:22:52.414Z,3.30
2023-02-20T12:26:04.048Z,3.50
2023-02-20T12:29:01.349Z,4.20
2023-02-20T12:31:58.187Z,3.73
2023-02-20T12:34:59.269Z,3.10
2023-02-20T12:37:55.162Z,3.30
2023-02-20T12:40:57.362Z,3.40
2023-02-20T12:43:52.461Z,3.63
2023-02-20T12:46:54.207Z,3.27
2023-02-20T12:49:57.177Z,2.80
2023-02-20T12:53:07.472Z,3.53
2023-02-20T12:56:09.440Z,3.23
2023-02-20T12:59:02.752Z,3.00
2023-02-20T13:01:52.878Z,2.87
2023-02-20T13:04:46.249Z,3.43
2023-02-20T13:07:38.375Z,3.10
2023-02-20T13:10:27.957Z,3.50
2023-02-20T13:13:16.694Z,3.63
2023-02-20T13:16:09.529Z,3.10
2023-02-20T13:19:05.045Z,2.50
2023-02-20T13:21:51.718Z,3.00
2023-02-20T13:24:39.658Z,2.73
2023-02-20T13:27:32.092Z,3.10
2023-02-20T13:30:22.285Z,2.90
2023-02-20T13:33:26.280Z,2.57
2023-02-20T13:36:42.614Z,3.20
2023-02-20T13:39:45.434Z,2.70
2023-02-20T13:42:36.335Z,3.27
2023-02-20T13:45:41.426Z,2.30
2023-02-20T13:48:44.193Z,2.60
2023-02-20T13:51:40.029Z,2.20
2023-02-20T13:54:29.681Z,2.70
2023-02-20T13:57:19.810Z,2.30
2023-02-20T14:00:25.832Z,2.10
2023-02-20T14:03:14.991Z,2.40
2023-02-20T14:06:11.506Z,2.67
2023-02-20T14:09:10.807Z,2.00
2023-02-20T14:12:07.303Z,2.20
2023-02-20T14:14:54.115Z,2.10
2023-02-20T14:17:43.852Z,2.97
2023-02-20T14:20:36.292Z,7.60
2023-02-20T14:23:27.264Z,3.10
2023-02-20T14:26:21.680Z,2.70
2023-02-20T14:29:28.275Z,2.30
2023-02-20T14:32:15.046Z,2.70
2023-02-20T14:35:08.822Z,2.47
2023-02-20T14:38:05.708Z,3.53
2023-02-20T14:40:52.403Z,2.07
2023-02-20T14:43:39.285Z,2.90
2023-02-20T14:46:29.070Z,2.10
2023-02-20T14:49:17.202Z,2.30
2023-02-20T14:52:19.916Z,2.20
2023-02-20T14:55:07.587Z,2.50
2023-02-20T14:57:54.053Z,2.20
2023-02-20T15:00:41.460Z,2.40
2023-02-20T15:03:31.822Z,2.40
2023-02-20T15:06:18.633Z,2.50
2023-02-20T15:09:21.022Z,2.23
2023-02-20T15:12:19.514Z,2.90
2023-02-20T15:15:08.537Z,2.27
2023-02-20T15:18:07.879Z,2.83
2023-02-20T15:20:56.062Z,2.40
2023-02-20T15:23:44.420Z,2.53
2023-02-20T15:26:33.517Z,2.50
2023-02-20T15:29:23.269Z,2.10
2023-02-20T15:32:21.691Z,1.83
2023-02-20T15:35:15.382Z,2.72
2023-02-20T15:38:07.825Z,3.28
2023-02-20T15:40:57.608Z,4.85
2023-02-20T15:43:50.695Z,4.85
2023-02-20T15:46:38.303Z,6.03
2023-02-20T15:49:24.730Z,10.37
2023-02-20T15:52:18.220Z,5.23
2023-02-20T15:55:07.162Z,4.97
2023-02-20T15:57:57.258Z,5.43
2023-02-20T16:00:43.914Z,5.70
2023-02-20T16:03:41.692Z,4.83
2023-02-20T16:06:31.718Z,5.70
2023-02-20T16:09:18.164Z,5.60
2023-02-20T16:12:07.083Z,5.93
2023-02-20T16:14:54.135Z,6.30
2023-02-20T16:17:40.414Z,6.30
2023-02-20T16:20:28.821Z,5.80
2023-02-20T16:23:15.146Z,21.83
2023-02-20T16:26:02.315Z,4.67
2023-02-20T16:28:55.872Z,2.80
2023-02-20T16:32:15.869Z,2.83
2023-02-20T16:35:02.895Z,2.70
2023-02-20T16:37:49.369Z,2.50
2023-02-20T16:40:35.971Z,2.80
2023-02-20T16:43:22.774Z,2.53
2023-02-20T16:46:11.811Z,3.13
2023-02-20T16:49:00.719Z,2.50
2023-02-20T16:51:51.140Z,4.20
2023-02-20T16:54:37.759Z,4.37
2023-02-20T16:57:25.246Z,3.47
2023-02-20T17:00:15.979Z,3.67
2023-02-20T17:03:06.541Z,3.40
2023-02-20T17:05:59.247Z,3.90
2023-02-20T17:08:45.430Z,3.90
2023-02-20T17:11:31.982Z,3.83
2023-02-20T17:14:18.260Z,4.00
2023-02-20T17:17:06.642Z,4.13
2023-02-20T17:19:55.431Z,3.97
2023-02-20T17:22:44.262Z,3.70
2023-02-20T17:25:30.842Z,3.93
2023-02-20T17:28:17.379Z,3.80
2023-02-20T17:31:03.867Z,3.90
2023-02-20T17:33:50.239Z,4.03
2023-02-20T17:36:37.934Z,3.70
2023-02-20T17:39:25.262Z,3.70
2023-02-20T17:42:12.512Z,4.00
2023-02-20T17:45:00.171Z,4.10
2023-02-20T17:47:47.322Z,4.30
2023-02-20T17:50:33.867Z,5.80
2023-02-20T17:53:21.433Z,10.33
2023-02-20T17:56:07.965Z,7.53
2023-02-20T17:58:54.626Z,5.10
2023-02-20T18:01:40.890Z,5.70
2023-02-20T18:04:27.206Z,4.77
2023-02-20T18:07:17.249Z,5.30
2023-02-20T18:10:06.422Z,5.73
2023-02-20T18:13:03.311Z,7.60
2023-02-20T18:15:50.219Z,10.53
2023-02-20T18:18:36.645Z,6.17
2023-02-20T18:21:25.819Z,6.40
2023-02-20T18:24:13.179Z,10.80
2023-02-20T18:27:01.487Z,6.50
2023-02-20T18:29:47.857Z,9.33
2023-02-20T18:32:34.132Z,7.23
2023-02-20T18:35:20.775Z,7.87
2023-02-20T18:38:07.716Z,6.00
2023-02-20T18:40:54.046Z,5.93
2023-02-20T18:43:44.869Z,6.20
2023-02-20T18:46:33.509Z,6.30
2023-02-20T18:49:19.887Z,6.90
2023-02-20T18:52:06.670Z,6.60
2023-02-20T18:54:53.430Z,6.57
2023-02-20T18:57:39.639Z,7.93
2023-02-20T19:00:29.372Z,7.63
2023-02-20T19:03:15.992Z,6.13
2023-02-20T19:06:05.972Z,6.53
2023-02-20T19:08:52.591Z,15.67
2023-02-20T19:11:39.095Z,7.17
2023-02-20T19:14:29.260Z,8.60
2023-02-20T19:17:17.475Z,8.83
2023-02-20T19:20:07.163Z,7.43
2023-02-20T19:22:55.210Z,7.13
2023-02-20T19:25:42.848Z,7.37
2023-02-20T19:28:29.919Z,7.10
2023-02-20T19:31:16.767Z,7.03
2023-02-20T19:34:04.680Z,7.33
2023-02-20T19:36:51.265Z,6.90
2023-02-20T19:39:37.846Z,7.53
2023-02-20T19:42:26.586Z,6.27
2023-02-20T19:45:14.161Z,6.70
2023-02-20T19:48:00.799Z,7.10
2023-02-20T19:50:48.754Z,7.60
2023-02-20T19:53:35.939Z,7.27
2023-02-20T19:56:22.234Z,6.77
2023-02-20T19:59:08.621Z,9.23
2023-02-20T20:02:03.340Z,8.17
2023-02-20T20:04:49.743Z,6.90
2023-02-20T20:07:37.535Z,7.50
2023-02-20T20:10:24.809Z,7.23
2023-02-20T20:13:11.539Z,7.10
2023-02-20T20:15:58.676Z,7.00
2023-02-20T20:18:45.463Z,6.90
2023-02-20T20:21:32.684Z,6.23
2023-02-20T20:24:23.744Z,13.17
2023-02-20T20:27:10.193Z,7.23
2023-02-20T20:29:56.750Z,6.60
2023-02-20T20:32:43.080Z,7.00
2023-02-20T20:35:30.929Z,6.97
2023-02-20T20:38:17.457Z,6.33
2023-02-20T20:41:05.362Z,6.73
2023-02-20T20:43:51.915Z,6.10
2023-02-20T20:46:38.508Z,7.17
2023-02-20T20:49:25.099Z,5.93
2023-02-20T20:52:11.476Z,5.73
2023-02-20T20:55:00.957Z,6.20
2023-02-20T20:57:51.550Z,6.17
2023-02-20T21:00:38.254Z,6.10
2023-02-20T21:03:24.654Z,5.47
2023-02-20T21:06:11.207Z,5.87
2023-02-20T21:08:57.606Z,6.00
2023-02-20T21:11:44.888Z,5.67
2023-02-20T21:14:35.321Z,6.80
2023-02-20T21:17:24.341Z,5.90
2023-02-20T21:20:14.428Z,4.83
2023-02-20T21:23:04.616Z,5.30
2023-02-20T21:25:51.068Z,5.13
2023-02-20T21:28:37.431Z,4.37
2023-02-20T21:31:25.613Z,5.20
2023-02-20T21:34:13.093Z,4.87
2023-02-20T21:36:59.688Z,4.47
2023-02-20T21:39:45.998Z,4.50
2023-02-20T21:42:49.670Z,4.97
2023-02-20T21:45:36.500Z,4.20
2023-02-20T21:48:24.369Z,4.23
2023-02-20T21:51:10.914Z,4.20
2023-02-20T21:53:57.217Z,4.33
2023-02-20T21:56:43.854Z,4.20
2023-02-20T21:59:29.310Z,3.93
2023-02-20T22:02:16.970Z,6.80
2023-02-20T22:05:04.512Z,4.63
2023-02-20T22:08:08.349Z,4.03
2023-02-20T22:11:12.750Z,4.10
2023-02-20T22:14:16.871Z,3.83
2023-02-20T22:17:21.298Z,4.20
2023-02-20T22:20:29.603Z,3.50
2023-02-20T22:23:33.582Z,4.03
2023-02-20T22:26:37.727Z,3.80
2023-02-20T22:29:41.703Z,4.37
2023-02-20T22:32:45.893Z,3.80
2023-02-20T22:35:51.353Z,3.70
2023-02-20T22:38:55.262Z,3.53
2023-02-20T22:41:59.055Z,4.60
2023-02-20T22:45:03.185Z,5.00
2023-02-20T22:48:07.155Z,4.33
2023-02-20T22:51:12.920Z,4.57
2023-02-20T22:54:17.170Z,4.23
2023-02-20T22:57:21.141Z,4.30
2023-02-20T23:00:26.571Z,4.33
2023-02-20T23:03:30.538Z,4.30
2023-02-20T23:06:38.748Z,3.90
2023-02-20T23:09:42.641Z,4.30
2023-02-20T23:12:46.522Z,3.80
2023-02-20T23:15:50.543Z,4.07
2023-02-20T23:18:54.748Z,4.10
2023-02-20T23:22:03.671Z,4.03
2023-02-20T23:25:07.466Z,4.10
2023-02-20T23:28:11.496Z,4.10
2023-02-20T23:31:15.355Z,5.27
2023-02-20T23:34:20.867Z,4.57
2023-02-20T23:37:26.644Z,4.50
2023-02-20T23:40:36.567Z,4.53
2023-02-20T23:43:41.372Z,4.77
2023-02-20T23:46:45.474Z,4.67
2023-02-20T23:49:49.598Z,5.13
2023-02-20T23:52:55.314Z,4.60
2023-02-20T23:55:59.152Z,6.40
2023-02-20T23:59:03.243Z,7.87
